Time;durP1;ratioP1;P1;durP2;ratioP2;P2;SDS_P1;SDS_P2;PMS_P1;PMS_P2;Temp;Humidity;BMP_temperature;BMP_pressure;BME280_temperature;BME280_humidity;BME280_pressure;Samples;Min_cycle;Max_cycle;Signal;HPM_P1;HPM_P2
2023/12/10 00:00:06;;;;;;;11.93;9.90;;;;;;;1.95;76.56;93372.47;519585;28;3282;-69
2023/12/10 00:00:21;;;;;;;12.50;9.95;;;;;;;1.94;75.96;93368.28;521867;28;3265;-69
2023/12/10 00:00:37;;;;;;;12.47;9.60;;;;;;;1.92;76.27;93378.91;520444;28;2997;-69
2023/12/10 00:00:52;;;;;;;10.50;8.82;;;;;;;1.92;75.93;93368.03;521169;28;2418;-69
2023/12/10 00:01:08;;;;;;;10.10;9.00;;;;;;;1.92;76.25;93368.03;519871;28;2981;-69
2023/12/10 00:01:24;;;;;;;10.73;9.38;;;;;;;1.93;75.99;93368.75;520383;28;2991;-69
2023/12/10 00:01:39;;;;;;;11.45;9.43;;;;;;;1.94;76.44;93372.97;519964;28;2115;-69
2023/12/10 00:01:55;;;;;;;11.83;9.60;;;;;;;1.97;75.73;93366.53;520773;28;3221;-69
2023/12/10 00:02:10;;;;;;;11.70;9.98;;;;;;;1.99;75.65;93369.50;520549;28;3450;-69
2023/12/10 00:02:26;;;;;;;11.67;9.90;;;;;;;2.01;76.33;93369.75;521567;28;2666;-69
2023/12/10 00:02:41;;;;;;;12.07;9.70;;;;;;;2.03;76.06;93370.75;520613;28;3197;-69
2023/12/10 00:02:57;;;;;;;12.57;10.10;;;;;;;2.06;75.72;93369.75;519164;28;2434;-69
2023/12/10 00:03:12;;;;;;;12.43;10.00;;;;;;;2.10;75.73;93369.50;518800;28;3486;-69
2023/12/10 00:03:27;;;;;;;12.20;9.37;;;;;;;2.12;75.83;93369.75;519773;28;2696;-69
2023/12/10 00:03:43;;;;;;;13.13;9.55;;;;;;;2.15;75.59;93368.75;518854;28;3343;-69
2023/12/10 00:03:58;;;;;;;13.57;9.93;;;;;;;2.16;75.65;93371.00;518794;28;2337;-68
2023/12/10 00:04:14;;;;;;;13.82;10.35;;;;;;;2.19;75.34;93372.72;518967;28;3125;-69
2023/12/10 00:04:29;;;;;;;13.87;10.43;;;;;;;2.21;75.25;93362.06;521617;28;1952;-69
2023/12/10 00:04:45;;;;;;;13.35;9.80;;;;;;;2.24;74.96;93368.50;521363;28;3253;-69
2023/12/10 00:05:01;;;;;;;13.20;10.10;;;;;;;2.20;75.59;93365.28;521048;28;3071;-69
2023/12/10 00:05:16;;;;;;;14.35;10.25;;;;;;;2.20;75.84;93370.72;519112;28;1943;-69
2023/12/10 00:05:32;;;;;;;14.20;10.10;;;;;;;2.17;75.01;93367.00;519713;28;3273;-69
2023/12/10 00:05:47;;;;;;;12.90;10.23;;;;;;;2.16;75.48;93368.28;518552;28;1746;-69
2023/12/10 00:06:03;;;;;;;11.13;9.63;;;;;;;2.17;75.48;93374.44;518469;28;2428;-68
2023/12/10 00:06:18;;;;;;;11.37;10.10;;;;;;;2.18;75.22;93365.03;519117;28;3117;-69
2023/12/10 00:06:34;;;;;;;12.50;10.63;;;;;;;2.16;75.59;93360.09;519444;28;1770;-69
2023/12/10 00:06:49;;;;;;;12.30;10.07;;;;;;;2.15;75.49;93366.78;518216;28;3132;-69
2023/12/10 00:07:06;;;;;;;13.02;10.02;;;;;;;2.17;75.11;93360.81;519831;28;3441;-68
2023/12/10 00:07:21;;;;;;;12.20;9.45;;;;;;;2.15;75.28;93361.31;518989;28;3143;-69
2023/12/10 00:07:36;;;;;;;11.33;8.87;;;;;;;2.14;75.18;93364.56;518943;28;3575;-69
2023/12/10 00:07:52;;;;;;;12.18;9.30;;;;;;;2.13;75.07;93363.06;519662;28;3420;-68
2023/12/10 00:08:07;;;;;;;11.90;9.47;;;;;;;2.14;75.20;93367.28;520948;28;2065;-68
2023/12/10 00:08:23;;;;;;;11.75;9.25;;;;;;;2.14;75.19;93364.56;521500;28;1613;-68
2023/12/10 00:08:38;;;;;;;12.53;9.90;;;;;;;2.16;75.58;93364.81;519494;28;2259;-69
2023/12/10 00:08:54;;;;;;;12.68;9.77;;;;;;;2.16;75.17;93367.53;521184;28;1905;-68
2023/12/10 00:09:09;;;;;;;11.13;9.10;;;;;;;2.15;75.26;93369.50;521084;28;2011;-68
2023/12/10 00:09:26;;;;;;;9.57;8.55;;;;;;;2.17;75.05;93360.81;520556;28;2224;-68
2023/12/10 00:09:41;;;;;;;10.63;8.32;;;;;;;2.18;75.72;93362.31;518756;28;1809;-69
2023/12/10 00:09:57;;;;;;;11.23;8.47;;;;;;;2.21;75.10;93366.75;519234;28;1646;-69
2023/12/10 00:10:12;;;;;;;10.68;9.27;;;;;;;2.21;74.81;93358.59;520801;28;3010;-68
2023/12/10 00:10:27;;;;;;;11.77;9.17;;;;;;;2.24;75.48;93357.59;520857;28;2993;-68
2023/12/10 00:10:43;;;;;;;12.35;8.82;;;;;;;2.25;75.09;93359.81;518830;28;3452;-69
2023/12/10 00:10:58;;;;;;;11.73;9.00;;;;;;;2.25;74.93;93361.81;518797;28;2812;-69
2023/12/10 00:11:14;;;;;;;11.18;8.80;;;;;;;2.26;74.42;93363.28;518394;28;2886;-69
2023/12/10 00:11:30;;;;;;;11.63;9.03;;;;;;;2.24;75.09;93368.50;519254;28;2300;-68
2023/12/10 00:11:46;;;;;;;12.13;9.52;;;;;;;2.22;75.27;93362.81;519120;28;2166;-69
2023/12/10 00:12:02;;;;;;;12.47;9.67;;;;;;;1.95;75.09;93322.75;519016;28;2228;-69
2023/12/10 00:12:17;;;;;;;12.57;9.77;;;;;;;2.19;75.08;93363.78;518892;28;3150;-69
2023/12/10 00:12:33;;;;;;;11.33;9.80;;;;;;;2.20;75.30;93365.28;519694;28;4013;-70
2023/12/10 00:12:48;;;;;;;11.88;9.80;;;;;;;2.21;75.48;93364.03;519147;28;3441;-69
2023/12/10 00:13:04;;;;;;;13.60;10.27;;;;;;;2.18;75.52;93360.34;519266;28;2128;-68
2023/12/10 00:13:19;;;;;;;13.63;10.07;;;;;;;2.18;75.22;93365.78;518910;28;3877;-69
2023/12/10 00:13:35;;;;;;;12.90;9.32;;;;;;;2.15;75.09;93361.31;519738;28;1916;-69
2023/12/10 00:13:51;;;;;;;12.40;9.38;;;;;;;2.13;75.03;93360.34;518492;28;1847;-69
2023/12/10 00:14:06;;;;;;;12.03;9.40;;;;;;;2.13;75.25;93365.78;519510;28;2073;-68
2023/12/10 00:14:23;;;;;;;13.93;9.63;;;;;;;2.14;75.19;93364.56;518594;28;3180;-69
2023/12/10 00:14:38;;;;;;;13.43;9.95;;;;;;;2.07;74.84;93360.34;519709;28;3175;-68
2023/12/10 00:14:55;;;;;;;11.40;9.53;;;;;;;2.01;75.53;93354.16;519789;28;2403;-68
2023/12/10 00:15:10;;;;;;;12.13;8.82;;;;;;;2.02;75.70;93354.88;520729;28;2414;-69
2023/12/10 00:15:26;;;;;;;11.90;8.85;;;;;;;1.97;75.91;93361.81;519969;28;2918;-69
2023/12/10 00:15:42;;;;;;;9.93;8.75;;;;;;;1.98;75.44;93357.13;519096;28;2180;-69
2023/12/10 00:15:57;;;;;;;9.60;8.60;;;;;;;1.95;75.56;93358.13;519459;28;2708;-69
2023/12/10 00:16:13;;;;;;;9.98;8.98;;;;;;;1.97;75.56;93358.38;519901;28;3036;-69
2023/12/10 00:16:28;;;;;;;10.63;9.30;;;;;;;2.00;75.72;93360.09;519212;28;2351;-69
2023/12/10 00:16:43;;;;;;;11.35;9.35;;;;;;;2.00;75.22;93354.66;519010;28;2008;-69
2023/12/10 00:16:59;;;;;;;11.67;10.20;;;;;;;2.03;75.45;93359.09;519507;28;2457;-68
2023/12/10 00:17:15;;;;;;;13.10;11.13;;;;;;;2.01;75.37;93351.44;521123;28;1962;-69
2023/12/10 00:17:30;;;;;;;13.30;11.20;;;;;;;2.07;75.80;93354.16;516649;28;2124;-68
2023/12/10 00:17:46;;;;;;;12.75;10.68;;;;;;;2.04;75.81;93353.16;516295;28;2114;-69
2023/12/10 00:18:01;;;;;;;12.80;10.20;;;;;;;2.03;75.79;93359.84;514960;28;3114;-69
2023/12/10 00:18:17;;;;;;;13.07;9.77;;;;;;;2.03;76.01;93348.97;517138;28;3304;-69
2023/12/10 00:18:32;;;;;;;13.57;9.97;;;;;;;2.07;76.11;93360.34;516757;28;3506;-69
2023/12/10 00:18:48;;;;;;;13.32;10.23;;;;;;;2.10;75.21;93358.63;515907;28;3021;-69
2023/12/10 00:19:03;;;;;;;11.60;9.80;;;;;;;2.13;75.54;93361.09;514393;28;2685;-68
2023/12/10 00:19:19;;;;;;;11.70;9.52;;;;;;;2.11;75.23;93357.38;516549;28;1611;-69
2023/12/10 00:19:35;;;;;;;11.77;9.55;;;;;;;2.05;75.11;93360.09;518259;28;2042;-68
2023/12/10 00:19:50;;;;;;;10.37;9.27;;;;;;;2.01;75.31;93350.69;519015;28;3064;-69
2023/12/10 00:20:06;;;;;;;10.60;8.90;;;;;;;2.00;75.13;93357.38;520651;28;3067;-68
2023/12/10 00:20:22;;;;;;;10.98;8.63;;;;;;;1.97;75.17;93358.38;521084;28;2205;-68
2023/12/10 00:20:38;;;;;;;11.57;8.75;;;;;;;1.95;75.49;93358.84;520628;28;2251;-69
2023/12/10 00:20:53;;;;;;;11.60;9.03;;;;;;;1.92;75.58;93345.50;520248;28;2868;-68
2023/12/10 00:21:12;;;;;;;11.68;8.95;;;;;;;1.88;75.33;93353.19;521016;28;1713;-69
2023/12/10 00:21:28;;;;;;;12.30;9.32;;;;;;;1.89;75.86;93347.22;520413;28;2881;-69
2023/12/10 00:21:43;;;;;;;12.87;9.63;;;;;;;1.91;75.32;93350.19;519777;28;2650;-70
2023/12/10 00:21:59;;;;;;;12.75;10.02;;;;;;;1.95;75.53;93352.69;518859;28;3028;-69
2023/12/10 00:22:15;;;;;;;12.88;10.65;;;;;;;1.94;75.48;93343.78;518750;28;1715;-69
2023/12/10 00:22:30;;;;;;;13.07;10.50;;;;;;;1.89;75.41;93341.03;519439;28;2991;-68
2023/12/10 00:22:46;;;;;;;13.18;10.20;;;;;;;1.86;76.06;93347.47;519088;28;3907;-68
2023/12/10 00:23:02;;;;;;;11.82;9.95;;;;;;;1.84;75.61;93344.50;518788;28;1782;-68
2023/12/10 00:23:18;;;;;;;10.27;9.20;;;;;;;1.85;75.79;93351.44;518580;28;1913;-68
2023/12/10 00:23:33;;;;;;;10.65;8.95;;;;;;;1.87;75.44;93349.69;520818;28;2975;-69
2023/12/10 00:23:49;;;;;;;13.13;9.63;;;;;;;1.89;75.54;93347.22;519220;28;3200;-68
2023/12/10 00:24:05;;;;;;;13.75;9.77;;;;;;;1.91;76.19;93347.47;518273;28;3043;-68
2023/12/10 00:24:22;;;;;;;11.52;9.10;;;;;;;1.92;76.04;93348.22;519696;28;3175;-69
2023/12/10 00:24:37;;;;;;;11.43;9.07;;;;;;;1.88;75.90;93345.00;518816;28;3095;-69
2023/12/10 00:24:53;;;;;;;11.50;8.95;;;;;;;1.90;75.58;93345.25;518774;28;2085;-68
2023/12/10 00:25:08;;;;;;;12.13;8.93;;;;;;;1.92;75.43;93350.94;519052;28;1875;-68
2023/12/10 00:25:26;;;;;;;12.85;9.05;;;;;;;1.93;75.32;93346.97;518682;28;2378;-69
2023/12/10 00:25:45;;;;;;;11.48;9.10;;;;;;;1.94;75.60;93351.94;518670;28;1927;-69
2023/12/10 00:26:00;;;;;;;12.80;9.82;;;;;;;1.94;75.42;93357.38;515710;28;3868;-68
2023/12/10 00:26:16;;;;;;;14.53;9.80;;;;;;;1.95;75.38;93345.25;516889;28;2121;-68
2023/12/10 00:26:31;;;;;;;14.60;9.85;;;;;;;1.98;75.56;93352.44;515874;28;3102;-69
2023/12/10 00:26:47;;;;;;;12.97;9.87;;;;;;;1.99;75.75;93351.16;516779;28;2049;-68
2023/12/10 00:27:03;;;;;;;11.63;9.77;;;;;;;2.01;76.03;93353.41;518060;28;4112;-68
2023/12/10 00:27:18;;;;;;;12.27;9.50;;;;;;;2.03;75.62;93353.66;520374;28;2387;-69
2023/12/10 00:27:33;;;;;;;12.80;9.03;;;;;;;2.02;75.51;93354.88;520774;28;3412;-68
2023/12/10 00:27:49;;;;;;;11.40;9.27;;;;;;;2.02;75.69;93350.19;520520;28;2010;-69
2023/12/10 00:28:05;;;;;;;10.05;8.75;;;;;;;2.01;75.87;93353.41;520015;28;1672;-69
2023/12/10 00:28:20;;;;;;;11.02;8.88;;;;;;;2.02;75.61;93349.44;519598;28;2349;-69
2023/12/10 00:28:36;;;;;;;11.93;9.73;;;;;;;2.02;76.04;93349.44;520905;28;3044;-69
2023/12/10 00:28:51;;;;;;;12.55;10.32;;;;;;;2.01;75.91;93348.72;520787;28;1968;-70
2023/12/10 00:29:07;;;;;;;14.27;10.93;;;;;;;2.01;75.55;93356.91;520366;28;1877;-69
2023/12/10 00:29:22;;;;;;;14.70;11.25;;;;;;;1.99;75.32;93353.19;521110;28;1907;-69
2023/12/10 00:29:37;;;;;;;13.53;11.17;;;;;;;1.94;75.51;93345.75;520974;28;2367;-69
2023/12/10 00:29:53;;;;;;;12.43;10.37;;;;;;;1.92;76.18;93348.97;520379;28;3073;-69
2023/12/10 00:30:09;;;;;;;12.23;9.75;;;;;;;1.92;75.28;93345.50;520946;28;2277;-69
2023/12/10 00:30:25;;;;;;;11.82;9.90;;;;;;;1.91;75.73;93350.19;518689;28;3119;-69
2023/12/10 00:30:42;;;;;;;13.95;10.48;;;;;;;1.91;75.91;93350.19;519356;28;3029;-69
2023/12/10 00:30:58;;;;;;;15.20;11.13;;;;;;;1.89;75.84;93344.50;516517;28;2864;-69
2023/12/10 00:31:13;;;;;;;14.13;11.52;;;;;;;1.83;75.64;93345.75;516527;28;2616;-69
2023/12/10 00:31:29;;;;;;;14.10;10.93;;;;;;;1.85;75.83;93346.72;516954;28;1867;-69
2023/12/10 00:31:44;;;;;;;14.48;10.50;;;;;;;1.85;75.76;93340.53;518768;28;1864;-69
2023/12/10 00:32:00;;;;;;;14.13;10.67;;;;;;;1.85;75.74;93340.53;518769;28;2878;-69
2023/12/10 00:32:15;;;;;;;13.82;11.05;;;;;;;1.85;75.98;93346.00;518869;28;2026;-69
2023/12/10 00:32:31;;;;;;;12.83;11.27;;;;;;;1.86;75.82;93344.75;519100;28;2421;-69
2023/12/10 00:32:46;;;;;;;13.07;11.63;;;;;;;1.85;76.35;93344.00;519019;28;3170;-69
2023/12/10 00:33:01;;;;;;;12.67;11.13;;;;;;;1.88;76.08;93345.75;520151;28;1917;-68
2023/12/10 00:33:17;;;;;;;12.90;10.10;;;;;;;1.87;75.95;93338.81;519073;28;2759;-69
2023/12/10 00:33:33;;;;;;;13.93;10.20;;;;;;;1.91;75.64;93344.75;519610;28;3097;-69
2023/12/10 00:33:48;;;;;;;13.75;10.90;;;;;;;1.92;75.81;93345.50;518683;28;3842;-69
2023/12/10 00:34:03;;;;;;;13.27;11.00;;;;;;;1.91;76.23;93349.44;519309;28;2176;-69
2023/12/10 00:34:19;;;;;;;13.57;10.82;;;;;;;1.88;76.02;93345.75;519556;28;2751;-69
2023/12/10 00:34:34;;;;;;;12.53;10.00;;;;;;;1.85;75.52;93340.53;519875;28;2365;-69
2023/12/10 00:34:50;;;;;;;12.00;9.82;;;;;;;1.84;75.97;93342.50;519053;28;1748;-69
2023/12/10 00:35:06;;;;;;;13.17;10.57;;;;;;;1.85;75.88;93346.00;518940;28;2120;-69
2023/12/10 00:35:22;;;;;;;13.52;10.80;;;;;;;1.86;76.17;93342.03;519163;28;1878;-69
2023/12/10 00:35:37;;;;;;;12.23;10.27;;;;;;;1.87;76.35;93343.50;519571;28;1729;-69
2023/12/10 00:35:53;;;;;;;13.40;11.27;;;;;;;1.84;76.34;93345.25;520277;28;2699;-69
2023/12/10 00:36:09;;;;;;;13.90;12.20;;;;;;;1.85;75.72;93341.28;518995;28;2321;-69
2023/12/10 00:36:24;;;;;;;13.30;11.20;;;;;;;1.89;75.92;93341.03;519225;28;1857;-69
2023/12/10 00:36:40;;;;;;;12.83;10.63;;;;;;;1.92;76.36;93348.22;519647;28;3489;-68
2023/12/10 00:36:55;;;;;;;12.30;10.45;;;;;;;1.93;76.29;93338.81;518772;28;2923;-69
2023/12/10 00:37:11;;;;;;;13.77;11.00;;;;;;;1.91;76.03;93338.56;518472;28;1916;-68
2023/12/10 00:37:26;;;;;;;13.57;11.20;;;;;;;1.85;76.13;93340.53;518922;28;1944;-69
2023/12/10 00:37:41;;;;;;;12.80;11.07;;;;;;;1.83;76.97;93338.31;518968;28;3390;-69
2023/12/10 00:37:57;;;;;;;13.52;11.07;;;;;;;1.83;75.94;93332.13;518263;28;2344;-69
2023/12/10 00:38:12;;;;;;;13.03;10.73;;;;;;;1.83;76.19;93337.56;520829;28;2831;-68
2023/12/10 00:38:28;;;;;;;13.48;10.88;;;;;;;1.81;76.17;93335.34;520933;28;1873;-69
2023/12/10 00:38:45;;;;;;;15.73;11.67;;;;;;;1.81;76.05;93338.06;517352;28;2064;-69
2023/12/10 00:39:00;;;;;;;14.52;11.38;;;;;;;1.84;76.83;93334.34;516291;28;1987;-68
2023/12/10 00:39:16;;;;;;;13.00;11.43;;;;;;;1.87;76.20;93338.06;516657;28;3652;-69
2023/12/10 00:39:31;;;;;;;15.10;12.07;;;;;;;1.87;76.35;93336.09;516740;28;1965;-69
2023/12/10 00:39:47;;;;;;;15.50;11.40;;;;;;;1.89;76.15;93338.31;516771;28;3415;-68
2023/12/10 00:40:05;;;;;;;14.05;10.65;;;;;;;1.84;76.46;93333.63;516247;28;2376;-68
2023/12/10 00:40:21;;;;;;;12.38;10.85;;;;;;;1.90;76.08;93337.84;517125;28;1862;-68
2023/12/10 00:40:36;;;;;;;11.43;10.33;;;;;;;1.91;76.33;93335.84;517553;28;3408;-68
2023/12/10 00:40:52;;;;;;;12.38;10.52;;;;;;;1.93;76.14;93341.53;518408;28;1960;-69
2023/12/10 00:41:11;;;;;;;13.83;10.70;;;;;;;1.95;76.29;93339.06;518864;28;3297;-69
2023/12/10 00:41:27;;;;;;;13.43;11.00;;;;;;;1.98;76.66;93338.06;519723;28;3442;-68
2023/12/10 00:41:42;;;;;;;13.67;11.27;;;;;;;1.99;75.95;93340.28;521003;28;1641;-69
2023/12/10 00:41:58;;;;;;;12.30;11.00;;;;;;;1.97;75.62;93334.59;520974;28;2491;-69
2023/12/10 00:42:13;;;;;;;12.37;11.13;;;;;;;1.97;75.91;93331.88;520921;28;1930;-68
2023/12/10 00:42:29;;;;;;;12.98;11.13;;;;;;;1.65;75.76;93297.97;521003;28;1752;-70
2023/12/10 00:42:44;;;;;;;13.67;11.03;;;;;;;1.94;76.39;93332.13;518896;28;3040;-70
2023/12/10 00:43:00;;;;;;;13.63;11.52;;;;;;;1.96;76.35;93338.56;519610;28;2021;-68
2023/12/10 00:43:16;;;;;;;13.43;11.47;;;;;;;1.94;75.98;93338.31;517716;28;3274;-68
2023/12/10 00:43:32;;;;;;;13.50;11.50;;;;;;;1.91;76.29;93335.84;519461;28;1721;-69
2023/12/10 00:43:47;;;;;;;12.40;10.33;;;;;;;1.90;76.33;93332.38;518814;28;2177;-68
2023/12/10 00:44:03;;;;;;;12.38;9.73;;;;;;;1.88;76.42;93337.59;520893;28;3304;-68
2023/12/10 00:44:19;;;;;;;13.18;10.27;;;;;;;1.92;76.52;93337.34;518260;28;3242;-68
2023/12/10 00:44:34;;;;;;;12.57;10.77;;;;;;;1.92;76.05;93335.34;519047;28;3618;-68
2023/12/10 00:44:50;;;;;;;12.20;10.50;;;;;;;1.91;76.35;93336.59;518968;28;3037;-68
2023/12/10 00:45:06;;;;;;;12.43;9.90;;;;;;;1.94;75.82;93337.56;519116;28;3556;-68
2023/12/10 00:45:22;;;;;;;13.80;10.93;;;;;;;1.91;76.22;93342.03;518458;28;3555;-68
2023/12/10 00:45:37;;;;;;;14.20;11.03;;;;;;;1.88;76.29;93337.59;519335;28;2443;-68
2023/12/10 00:45:53;;;;;;;12.95;10.25;;;;;;;1.89;76.32;93338.31;518481;28;2364;-68
2023/12/10 00:46:09;;;;;;;12.83;10.80;;;;;;;1.87;76.05;93333.38;519774;28;1790;-68
2023/12/10 00:46:25;;;;;;;14.30;11.43;;;;;;;1.81;76.54;93331.88;519110;28;2063;-68
2023/12/10 00:46:40;;;;;;;14.47;11.57;;;;;;;1.76;76.47;93327.94;521142;28;3396;-68
2023/12/10 00:46:56;;;;;;;13.02;11.20;;;;;;;1.73;76.46;93328.19;520829;28;1866;-68
2023/12/10 00:47:11;;;;;;;12.90;10.90;;;;;;;1.73;77.27;93325.47;518954;28;1962;-68
2023/12/10 00:47:27;;;;;;;12.37;10.73;;;;;;;1.74;76.74;93329.66;519224;28;2464;-68
2023/12/10 00:47:42;;;;;;;13.23;10.98;;;;;;;1.75;76.97;93328.44;519079;28;1879;-68
2023/12/10 00:47:58;;;;;;;13.93;10.93;;;;;;;1.71;76.95;93319.78;519030;28;2244;-69
2023/12/10 00:48:13;;;;;;;13.77;10.80;;;;;;;1.72;77.09;93329.41;518982;28;2962;-68
2023/12/10 00:48:29;;;;;;;13.80;10.90;;;;;;;1.72;77.24;93329.41;519504;28;1766;-69
2023/12/10 00:48:44;;;;;;;14.60;11.80;;;;;;;1.73;76.63;93328.19;519362;28;1593;-68
2023/12/10 00:49:00;;;;;;;15.25;12.52;;;;;;;1.76;77.09;93327.19;519141;28;3278;-68
2023/12/10 00:49:15;;;;;;;15.33;12.23;;;;;;;1.78;76.84;93327.41;518959;28;2456;-68
2023/12/10 00:49:31;;;;;;;14.38;11.43;;;;;;;1.81;76.95;93323.72;519325;28;2932;-68
2023/12/10 00:49:46;;;;;;;12.70;11.00;;;;;;;1.85;77.13;93319.50;519099;28;1828;-68
2023/12/10 00:50:02;;;;;;;12.75;10.85;;;;;;;1.86;76.58;93325.72;518775;28;3445;-68
2023/12/10 00:50:18;;;;;;;13.87;10.77;;;;;;;1.87;76.77;93324.44;520405;28;1685;-68
2023/12/10 00:50:33;;;;;;;13.57;10.80;;;;;;;1.87;76.54;93327.19;520448;28;2792;-68
2023/12/10 00:50:49;;;;;;;12.70;11.18;;;;;;;1.89;76.60;93330.16;519351;28;1543;-68
2023/12/10 00:51:04;;;;;;;12.87;11.53;;;;;;;1.93;76.41;93322.47;517506;28;2044;-68
2023/12/10 00:51:21;;;;;;;14.25;11.85;;;;;;;1.95;76.43;93320.75;519361;28;2310;-68
2023/12/10 00:51:36;;;;;;;14.93;11.88;;;;;;;1.99;75.91;93320.50;520586;28;3586;-69
2023/12/10 00:51:52;;;;;;;13.65;11.25;;;;;;;2.00;76.11;93328.16;518905;28;1839;-68
2023/12/10 00:52:07;;;;;;;14.40;11.45;;;;;;;2.03;75.80;93329.16;519243;28;2060;-68
2023/12/10 00:52:23;;;;;;;15.20;11.33;;;;;;;1.99;75.96;93328.66;519001;28;2578;-68
2023/12/10 00:52:39;;;;;;;15.13;11.15;;;;;;;1.99;75.95;93323.94;521125;28;3420;-68
2023/12/10 00:52:54;;;;;;;15.00;11.90;;;;;;;2.01;76.15;93326.19;518953;28;2002;-68
2023/12/10 00:53:09;;;;;;;13.88;11.95;;;;;;;2.05;75.46;93323.97;520828;28;1906;-68
2023/12/10 00:53:25;;;;;;;13.63;11.80;;;;;;;2.06;75.60;93319.97;520890;28;2107;-68
2023/12/10 00:53:41;;;;;;;14.10;11.38;;;;;;;2.10;75.87;93325.94;521655;28;3722;-68
2023/12/10 00:53:56;;;;;;;13.70;11.00;;;;;;;2.10;75.49;93331.38;520658;28;3081;-68
2023/12/10 00:54:12;;;;;;;14.02;11.50;;;;;;;2.00;75.54;93308.34;519120;28;2346;-68
2023/12/10 00:54:29;;;;;;;13.40;11.60;;;;;;;2.12;75.58;93321.47;521315;28;1519;-68
2023/12/10 00:54:45;;;;;;;12.73;11.25;;;;;;;2.14;75.84;93316.25;521583;28;1895;-68
2023/12/10 00:55:00;;;;;;;13.40;11.45;;;;;;;2.16;75.42;93315.78;520684;28;1955;-68
2023/12/10 00:55:16;;;;;;;14.37;11.60;;;;;;;2.18;75.60;93318.75;519339;28;3131;-68
2023/12/10 00:55:31;;;;;;;13.98;11.13;;;;;;;2.17;75.36;93317.25;519096;28;3117;-70
2023/12/10 00:55:47;;;;;;;13.30;10.97;;;;;;;2.18;75.40;93314.03;519094;28;3234;-69
2023/12/10 00:56:02;;;;;;;14.32;11.65;;;;;;;1.92;75.38;93280.91;519706;28;1610;-69
2023/12/10 00:56:18;;;;;;;14.40;11.77;;;;;;;2.12;75.06;93318.75;521561;28;3467;-69
2023/12/10 00:56:34;;;;;;;15.07;12.10;;;;;;;2.13;75.32;93311.31;521661;28;1657;-70
2023/12/10 00:56:49;;;;;;;16.35;12.93;;;;;;;2.15;75.33;93317.75;520729;28;3084;-69
2023/12/10 00:57:05;;;;;;;14.70;11.87;;;;;;;2.17;74.85;93312.53;521293;28;987;-69
2023/12/10 00:57:20;;;;;;;13.10;10.30;;;;;;;2.18;74.94;93316.78;521116;28;2388;-69
2023/12/10 00:57:36;;;;;;;13.30;9.60;;;;;;;2.21;74.73;93315.00;517759;28;1922;-69
2023/12/10 00:57:52;;;;;;;14.18;9.13;;;;;;;2.21;74.69;93307.59;516896;28;3270;-70
2023/12/10 00:58:07;;;;;;;14.15;9.38;;;;;;;2.22;74.62;93308.34;517570;28;2845;-70
2023/12/10 00:58:23;;;;;;;15.50;10.60;;;;;;;2.24;74.50;93312.03;518257;28;2140;-70
2023/12/10 00:58:38;;;;;;;15.82;11.27;;;;;;;2.24;74.60;93312.03;519331;28;1830;-70
2023/12/10 00:58:54;;;;;;;14.67;11.00;;;;;;;2.26;74.33;93304.13;516766;28;3367;-70
2023/12/10 00:59:09;;;;;;;14.52;10.85;;;;;;;2.27;74.51;93311.03;516751;28;2009;-70
2023/12/10 00:59:25;;;;;;;13.50;10.53;;;;;;;2.28;74.49;93303.59;517288;28;3375;-70
2023/12/10 00:59:40;;;;;;;12.75;10.10;;;;;;;2.28;74.43;93307.09;519485;28;2426;-70
2023/12/10 00:59:55;;;;;;;12.97;9.87;;;;;;;2.30;74.64;93306.56;519304;28;1865;-70
2023/12/10 01:00:11;;;;;;;12.43;9.43;;;;;;;2.31;74.56;93305.34;520767;28;2199;-69
2023/12/10 01:00:27;;;;;;;13.40;9.80;;;;;;;2.33;74.30;93296.66;520705;28;1936;-69
2023/12/10 01:00:42;;;;;;;14.00;10.13;;;;;;;2.35;74.86;93308.56;520536;28;3786;-69
2023/12/10 01:00:58;;;;;;;15.00;10.27;;;;;;;2.36;74.53;93301.84;519021;28;2168;-69
2023/12/10 01:01:13;;;;;;;15.35;11.18;;;;;;;2.36;74.45;93293.69;519108;28;1740;-69
2023/12/10 01:01:29;;;;;;;13.80;11.00;;;;;;;2.37;74.52;93297.16;518138;28;2148;-71
2023/12/10 01:01:44;;;;;;;14.60;10.63;;;;;;;2.38;74.25;93302.13;521127;28;1838;-69
2023/12/10 01:02:00;;;;;;;14.93;10.73;;;;;;;2.38;73.99;93298.66;520376;28;1815;-69
2023/12/10 01:02:15;;;;;;;13.73;10.25;;;;;;;2.37;73.76;93300.63;520538;28;2465;-69
2023/12/10 01:02:30;;;;;;;12.93;10.07;;;;;;;2.35;74.00;93292.22;519702;28;3346;-69
2023/12/10 01:02:46;;;;;;;11.93;9.48;;;;;;;2.30;74.19;93295.69;521639;28;1701;-69
2023/12/10 01:03:04;;;;;;;11.83;9.17;;;;;;;2.31;74.03;93297.19;519825;28;1865;-69
2023/12/10 01:03:19;;;;;;;11.75;9.85;;;;;;;2.30;74.07;93292.94;519153;28;2015;-69
2023/12/10 01:03:35;;;;;;;12.13;10.00;;;;;;;2.32;74.39;93292.47;519222;28;3092;-69
2023/12/10 01:03:50;;;;;;;13.00;10.18;;;;;;;2.33;74.65;93296.66;519478;28;2317;-69
2023/12/10 01:04:06;;;;;;;14.20;10.77;;;;;;;2.34;74.30;93296.16;519010;28;1737;-69
2023/12/10 01:04:24;;;;;;;12.53;10.33;;;;;;;2.35;74.34;93294.19;518699;28;2464;-69
2023/12/10 01:04:41;;;;;;;12.90;10.48;;;;;;;2.33;74.31;93293.94;519400;28;2253;-69
2023/12/10 01:04:56;;;;;;;12.77;10.52;;;;;;;2.31;74.44;93291.72;518950;28;2706;-69
2023/12/10 01:05:12;;;;;;;13.10;10.47;;;;;;;2.32;74.21;93295.19;518686;28;3119;-69
2023/12/10 01:05:28;;;;;;;13.30;10.82;;;;;;;2.31;74.57;93294.44;518973;28;1907;-69
2023/12/10 01:05:44;;;;;;;14.43;11.15;;;;;;;2.34;74.84;93301.59;519359;28;1918;-69
2023/12/10 01:06:00;;;;;;;13.88;10.93;;;;;;;2.34;74.22;93298.88;518574;28;2195;-69
2023/12/10 01:06:16;;;;;;;13.20;10.73;;;;;;;2.35;74.43;93297.66;519033;28;2595;-69
2023/12/10 01:06:31;;;;;;;14.25;10.90;;;;;;;2.36;74.61;93290.22;519262;28;3010;-69
2023/12/10 01:06:46;;;;;;;14.93;10.70;;;;;;;2.38;74.33;93298.66;520603;28;3092;-69
2023/12/10 01:07:02;;;;;;;14.93;10.68;;;;;;;2.39;73.72;93297.38;520682;28;3070;-69
2023/12/10 01:07:18;;;;;;;14.40;11.25;;;;;;;2.40;73.89;93296.16;520861;28;2907;-69
2023/12/10 01:07:33;;;;;;;15.47;11.33;;;;;;;2.41;74.00;93292.19;520079;28;1883;-69
2023/12/10 01:07:49;;;;;;;14.53;10.83;;;;;;;2.42;74.00;93294.44;519757;28;3299;-69
2023/12/10 01:08:04;;;;;;;13.57;10.93;;;;;;;2.43;73.82;93297.88;520329;28;2357;-69
2023/12/10 01:08:20;;;;;;;14.53;10.97;;;;;;;2.44;73.94;93291.94;520840;28;3998;-69
2023/12/10 01:08:35;;;;;;;14.40;10.50;;;;;;;2.45;73.48;93290.69;520846;28;3561;-69
2023/12/10 01:08:51;;;;;;;13.93;10.77;;;;;;;2.46;73.83;93288.72;520774;28;3013;-69
2023/12/10 01:09:07;;;;;;;13.70;11.37;;;;;;;2.47;73.71;93296.38;521180;28;2385;-69
2023/12/10 01:09:22;;;;;;;14.02;11.38;;;;;;;2.48;73.67;93291.66;521023;28;3312;-69
2023/12/10 01:09:38;;;;;;;14.15;11.10;;;;;;;2.48;73.58;93297.13;521737;28;1897;-69
2023/12/10 01:09:54;;;;;;;14.32;11.23;;;;;;;2.47;73.76;93296.38;518220;28;3261;-69
2023/12/10 01:10:09;;;;;;;14.87;10.97;;;;;;;2.48;73.49;93291.66;519222;28;1925;-69
2023/12/10 01:10:25;;;;;;;15.68;11.50;;;;;;;2.47;73.54;93293.66;518443;28;2217;-69
2023/12/10 01:10:40;;;;;;;15.30;11.60;;;;;;;2.47;73.00;93290.91;518580;28;3293;-69
2023/12/10 01:10:59;;;;;;;15.40;11.73;;;;;;;2.47;73.56;93293.66;519211;28;2255;-69
2023/12/10 01:11:14;;;;;;;16.20;12.43;;;;;;;2.48;73.96;93292.41;521076;28;3259;-69
2023/12/10 01:11:30;;;;;;;15.88;12.25;;;;;;;2.49;73.51;93299.34;518497;28;1849;-69
2023/12/10 01:11:46;;;;;;;16.30;12.05;;;;;;;2.50;73.52;93303.56;521568;28;1967;-69
2023/12/10 01:12:03;;;;;;;15.27;11.57;;;;;;;2.51;73.29;93296.13;517791;28;3725;-69
2023/12/10 01:12:18;;;;;;;15.30;11.32;;;;;;;2.51;73.53;93294.16;518449;28;3963;-69
2023/12/10 01:12:36;;;;;;;15.73;11.45;;;;;;;2.53;74.35;93293.66;519106;28;2599;-69
2023/12/10 01:12:52;;;;;;;14.63;11.10;;;;;;;2.54;73.87;93301.31;518563;28;3752;-69
2023/12/10 01:13:08;;;;;;;13.95;10.80;;;;;;;2.30;73.84;93263.00;518727;28;1977;-69
2023/12/10 01:13:24;;;;;;;13.70;11.47;;;;;;;2.46;74.11;93285.97;518675;28;3022;-69
2023/12/10 01:13:40;;;;;;;13.40;10.88;;;;;;;2.55;73.72;93302.81;521034;28;1627;-69
2023/12/10 01:13:56;;;;;;;14.70;10.70;;;;;;;2.57;73.87;93302.31;519983;28;2449;-69
2023/12/10 01:14:11;;;;;;;13.47;10.77;;;;;;;2.58;73.97;93301.06;518627;28;1801;-70
2023/12/10 01:14:27;;;;;;;13.88;11.02;;;;;;;2.58;73.81;93296.34;518980;28;2278;-69
2023/12/10 01:14:44;;;;;;;15.50;11.70;;;;;;;2.59;73.76;93300.56;518908;28;1679;-69
2023/12/10 01:14:59;;;;;;;15.82;12.02;;;;;;;2.58;74.31;93298.34;520485;28;1551;-69